createdAt,value
2019-03-05T00:00:22.807Z,0
2019-03-05T00:01:22.788Z,0
2019-03-05T00:02:22.781Z,0
2019-03-05T00:03:22.760Z,0
2019-03-05T00:04:22.758Z,0
2019-03-05T00:05:22.490Z,0
2019-03-05T00:06:22.721Z,0
2019-03-05T00:07:22.712Z,0
2019-03-05T00:08:22.697Z,0
2019-03-05T00:09:22.681Z,0
2019-03-05T00:10:22.675Z,0
2019-03-05T00:11:22.662Z,0
2019-03-05T00:12:22.659Z,0
2019-03-05T00:13:22.639Z,0
2019-03-05T00:14:23.718Z,0
2019-03-05T00:15:22.646Z,0
2019-03-05T00:16:22.597Z,0
2019-03-05T00:17:22.575Z,0
2019-03-05T00:18:22.580Z,0
2019-03-05T00:19:22.549Z,0
2019-03-05T00:20:22.555Z,0
2019-03-05T00:21:22.523Z,0
2019-03-05T00:22:22.515Z,0
2019-03-05T00:23:22.505Z,0
2019-03-05T00:24:22.250Z,0
2019-03-05T00:25:22.485Z,0
2019-03-05T00:26:22.467Z,0
2019-03-05T00:27:22.457Z,0
2019-03-05T00:28:22.445Z,0
2019-03-05T00:29:22.428Z,0
2019-03-05T00:30:22.412Z,0
2019-03-05T00:31:22.408Z,0
2019-03-05T00:32:22.386Z,0
2019-03-05T00:33:22.382Z,0
2019-03-05T00:34:22.369Z,0
2019-03-05T00:35:22.354Z,0
2019-03-05T00:36:22.346Z,0
2019-03-05T00:37:22.325Z,0
2019-03-05T00:38:22.326Z,0
2019-03-05T00:39:22.068Z,0
2019-03-05T00:40:22.291Z,0
2019-03-05T00:41:22.281Z,0
2019-03-05T00:42:22.264Z,0
2019-03-05T00:43:22.256Z,0
2019-03-05T00:44:22.236Z,0
2019-03-05T00:45:21.982Z,0
2019-03-05T00:46:22.222Z,0
2019-03-05T00:47:22.237Z,0
2019-03-05T00:48:22.201Z,0
2019-03-05T00:49:21.940Z,0
2019-03-05T00:50:22.168Z,0
2019-03-05T00:51:33.966Z,0
2019-03-05T00:52:21.906Z,0
2019-03-05T00:53:22.134Z,0
2019-03-05T00:54:22.117Z,0
2019-03-05T00:55:22.107Z,0
2019-03-05T00:56:22.100Z,0
2019-03-05T00:57:22.086Z,0
2019-03-05T00:58:22.073Z,0
2019-03-05T00:59:22.056Z,0
2019-03-05T01:00:22.044Z,0
2019-03-05T01:01:22.041Z,0
2019-03-05T01:02:22.021Z,0
2019-03-05T01:03:22.104Z,0
2019-03-05T01:04:21.998Z,0
2019-03-05T01:05:21.981Z,0
2019-03-05T01:06:21.980Z,0
2019-03-05T01:07:21.960Z,0
2019-03-05T01:08:24.482Z,0
2019-03-05T01:09:21.945Z,0
2019-03-05T01:10:21.935Z,0
2019-03-05T01:11:21.909Z,0
2019-03-05T01:12:21.894Z,0
2019-03-05T01:13:21.886Z,0
2019-03-05T01:14:21.633Z,0
2019-03-05T01:15:21.860Z,0
2019-03-05T01:16:21.854Z,0
2019-03-05T01:17:21.841Z,0
2019-03-05T01:18:21.831Z,0
2019-03-05T01:19:21.813Z,0
2019-03-05T01:20:21.799Z,0
2019-03-05T01:21:21.794Z,0
2019-03-05T01:22:21.779Z,0
2019-03-05T01:23:21.760Z,0
2019-03-05T01:24:21.831Z,0
2019-03-05T01:25:21.498Z,0
2019-03-05T01:26:21.733Z,0
2019-03-05T01:27:21.711Z,0
2019-03-05T01:28:21.704Z,0
2019-03-05T01:29:21.687Z,0
2019-03-05T01:30:21.674Z,0
2019-03-05T01:31:21.667Z,0
2019-03-05T01:32:21.673Z,0
2019-03-05T01:33:21.648Z,0
2019-03-05T01:34:21.622Z,0
2019-03-05T01:35:21.623Z,0
2019-03-05T01:36:21.603Z,0
2019-03-05T01:37:21.652Z,0
2019-03-05T01:38:21.575Z,0
2019-03-05T01:39:21.564Z,0
2019-03-05T01:40:21.554Z,0
2019-03-05T01:41:21.548Z,0
2019-03-05T01:42:21.522Z,0
2019-03-05T01:43:21.510Z,0
2019-03-05T01:44:21.496Z,0
2019-03-05T01:45:21.482Z,0
2019-03-05T01:46:21.472Z,0
2019-03-05T01:47:21.525Z,0
2019-03-05T01:48:21.456Z,0
2019-03-05T01:49:21.433Z,0
2019-03-05T01:50:21.422Z,0
2019-03-05T01:51:21.404Z,0
2019-03-05T01:52:21.392Z,0
2019-03-05T01:53:21.462Z,0
2019-03-05T01:54:21.410Z,0
2019-03-05T01:55:21.367Z,0
2019-03-05T01:56:21.409Z,0
2019-03-05T01:57:21.327Z,0
2019-03-05T01:58:21.327Z,0
2019-03-05T01:59:21.306Z,0
2019-03-05T02:00:21.512Z,0
2019-03-05T02:01:21.277Z,0
2019-03-05T02:02:21.313Z,0
2019-03-05T02:03:21.245Z,0
2019-03-05T02:04:21.238Z,0
2019-03-05T02:05:21.218Z,0
2019-03-05T02:06:21.209Z,0
2019-03-05T02:07:21.192Z,0
2019-03-05T02:08:21.187Z,0
2019-03-05T02:09:21.165Z,0
2019-03-05T02:10:21.150Z,0
2019-03-05T02:11:21.140Z,0
2019-03-05T02:12:21.126Z,0
2019-03-05T02:13:21.112Z,0
2019-03-05T02:14:21.095Z,0
2019-03-05T02:15:21.087Z,0
2019-03-05T02:16:21.069Z,0
2019-03-05T02:17:21.054Z,0
2019-03-05T02:18:21.044Z,0
2019-03-05T02:19:21.040Z,0
2019-03-05T02:20:21.041Z,0
2019-03-05T02:21:21.047Z,0
2019-03-05T02:22:20.742Z,0
2019-03-05T02:23:20.975Z,0
2019-03-05T02:24:20.956Z,0
2019-03-05T02:25:20.706Z,0
2019-03-05T02:26:20.942Z,0
2019-03-05T02:27:20.920Z,0
2019-03-05T02:28:20.908Z,0
2019-03-05T02:29:20.897Z,0
2019-03-05T02:30:20.889Z,0
2019-03-05T02:31:20.877Z,0
2019-03-05T02:32:20.868Z,0
2019-03-05T02:33:20.848Z,0
2019-03-05T02:34:20.845Z,0
2019-03-05T02:35:20.812Z,0
2019-03-05T02:36:20.808Z,0
2019-03-05T02:37:20.790Z,0
2019-03-05T02:38:20.789Z,0
2019-03-05T02:39:20.542Z,0
2019-03-05T02:40:20.763Z,0
2019-03-05T02:41:20.743Z,0
2019-03-05T02:42:20.723Z,0
2019-03-05T02:43:20.710Z,0
2019-03-05T02:44:20.690Z,0
2019-03-05T02:45:20.688Z,0
2019-03-05T02:46:20.677Z,0
2019-03-05T02:47:20.665Z,0
2019-03-05T02:48:20.633Z,0
2019-03-05T02:49:20.635Z,0
2019-03-05T02:50:20.603Z,0
2019-03-05T02:51:20.595Z,0
2019-03-05T02:52:20.580Z,0
2019-03-05T02:53:20.331Z,0
2019-03-05T02:54:20.689Z,0
2019-03-05T02:55:20.542Z,0
2019-03-05T02:56:20.519Z,0
2019-03-05T02:57:20.512Z,0
2019-03-05T02:58:20.500Z,0
2019-03-05T02:59:20.491Z,0
2019-03-05T03:00:20.478Z,0
2019-03-05T03:01:20.212Z,0
2019-03-05T03:02:20.457Z,0
2019-03-05T03:03:20.422Z,0
2019-03-05T03:04:20.480Z,0
2019-03-05T03:05:20.417Z,0
2019-03-05T03:06:20.391Z,0
2019-03-05T03:07:20.142Z,0
2019-03-05T03:08:20.371Z,0
2019-03-05T03:09:20.334Z,0
2019-03-05T03:10:20.333Z,0
2019-03-05T03:11:20.323Z,0
2019-03-05T03:12:20.301Z,0
2019-03-05T03:13:20.304Z,0
2019-03-05T03:14:20.281Z,0
2019-03-05T03:15:20.102Z,0
2019-03-05T03:16:20.257Z,0
2019-03-05T03:17:20.431Z,0
2019-03-05T03:18:20.216Z,0
2019-03-05T03:19:19.975Z,0
2019-03-05T03:20:20.203Z,0
2019-03-05T03:21:20.179Z,0
2019-03-05T03:22:20.165Z,0
2019-03-05T03:23:20.163Z,0
2019-03-05T03:24:20.134Z,0
2019-03-05T03:25:20.118Z,0
2019-03-05T03:26:20.116Z,0
2019-03-05T03:27:20.101Z,0
2019-03-05T03:28:20.077Z,0
2019-03-05T03:29:20.070Z,0
2019-03-05T03:30:20.367Z,0
2019-03-05T03:31:20.057Z,0
2019-03-05T03:32:20.085Z,0
2019-03-05T03:33:20.162Z,0
2019-03-05T03:34:20.066Z,0
2019-03-05T03:35:20.010Z,0
2019-03-05T03:36:20.025Z,0
2019-03-05T03:37:19.994Z,0
2019-03-05T03:38:19.978Z,0
2019-03-05T03:39:19.944Z,0
2019-03-05T03:40:19.957Z,0
2019-03-05T03:41:19.907Z,0
2019-03-05T03:42:19.903Z,0
2019-03-05T03:43:19.655Z,0
2019-03-05T03:44:19.983Z,0
2019-03-05T03:45:19.641Z,0
2019-03-05T03:46:19.855Z,0
2019-03-05T03:47:19.876Z,0
2019-03-05T03:48:19.821Z,0
2019-03-05T03:49:19.819Z,0
2019-03-05T03:50:19.550Z,0
2019-03-05T03:51:19.790Z,0
2019-03-05T03:52:19.783Z,0
2019-03-05T03:53:19.778Z,0
2019-03-05T03:54:19.794Z,0
2019-03-05T03:55:19.754Z,0
2019-03-05T03:56:19.717Z,0
2019-03-05T03:57:19.707Z,0
2019-03-05T03:58:19.694Z,0
2019-03-05T03:59:19.683Z,0
2019-03-05T04:00:19.673Z,0
2019-03-05T04:01:19.672Z,0
2019-03-05T04:02:19.653Z,0
2019-03-05T04:03:19.718Z,0
2019-03-05T04:04:19.638Z,0
2019-03-05T04:05:19.645Z,0
2019-03-05T04:06:19.610Z,0
2019-03-05T04:07:19.612Z,0
2019-03-05T04:08:20.100Z,0
2019-03-05T04:09:19.590Z,0
2019-03-05T04:10:19.567Z,0
2019-03-05T04:11:19.531Z,0
2019-03-05T04:12:19.530Z,0
2019-03-05T04:13:19.510Z,0
2019-03-05T04:14:19.559Z,0
2019-03-05T04:15:19.517Z,0
2019-03-05T04:16:19.469Z,0
2019-03-05T04:17:19.512Z,0
2019-03-05T04:18:19.468Z,0
2019-03-05T04:19:19.444Z,0
2019-03-05T04:20:19.429Z,0
2019-03-05T04:21:22.498Z,0
2019-03-05T04:22:19.402Z,0
2019-03-05T04:23:19.421Z,0
2019-03-05T04:24:19.380Z,0
2019-03-05T04:25:19.355Z,0
2019-03-05T04:26:19.346Z,0
2019-03-05T04:27:19.335Z,0
2019-03-05T04:28:19.319Z,0
2019-03-05T04:29:19.341Z,0
2019-03-05T04:30:19.314Z,0
2019-03-05T04:31:19.295Z,0
2019-03-05T04:32:19.280Z,0
2019-03-05T04:33:19.301Z,0
2019-03-05T04:34:19.267Z,0
2019-03-05T04:35:19.238Z,0
2019-03-05T04:36:19.222Z,0
2019-03-05T04:37:19.268Z,0
2019-03-05T04:38:18.958Z,0
2019-03-05T04:39:19.213Z,0
2019-03-05T04:40:19.196Z,0
2019-03-05T04:41:19.442Z,0
2019-03-05T04:42:19.176Z,0
2019-03-05T04:43:19.166Z,0
2019-03-05T04:44:19.165Z,0
2019-03-05T04:45:19.141Z,0
2019-03-05T04:46:19.124Z,0
2019-03-05T04:47:18.868Z,0
2019-03-05T04:48:19.105Z,0
2019-03-05T04:49:19.088Z,0
2019-03-05T04:50:19.083Z,0
2019-03-05T04:51:19.065Z,0
2019-03-05T04:52:19.056Z,0
2019-03-05T04:53:19.043Z,0
2019-03-05T04:54:19.027Z,0
2019-03-05T04:55:19.016Z,0
2019-03-05T04:56:18.999Z,0
2019-03-05T04:57:18.998Z,0
2019-03-05T04:58:18.977Z,0
2019-03-05T04:59:18.727Z,0
2019-03-05T05:00:18.979Z,0
2019-03-05T05:01:18.970Z,0
2019-03-05T05:02:18.949Z,0
2019-03-05T05:03:18.922Z,0
2019-03-05T05:04:18.909Z,0
2019-03-05T05:05:18.895Z,0
2019-03-05T05:06:18.914Z,0
2019-03-05T05:07:18.867Z,0
2019-03-05T05:08:18.860Z,0
2019-03-05T05:09:18.851Z,0
2019-03-05T05:10:18.832Z,0
2019-03-05T05:11:18.823Z,0
2019-03-05T05:12:18.568Z,0
2019-03-05T05:13:18.801Z,0
2019-03-05T05:14:18.789Z,0
2019-03-05T05:15:18.775Z,0
2019-03-05T05:16:18.761Z,0
2019-03-05T05:17:18.755Z,0
2019-03-05T05:18:18.740Z,0
2019-03-05T05:19:18.729Z,0
2019-03-05T05:20:18.717Z,0
2019-03-05T05:21:18.532Z,0
2019-03-05T05:22:18.690Z,0
2019-03-05T05:23:18.685Z,0
2019-03-05T05:24:18.665Z,0
2019-03-05T05:25:18.659Z,0
2019-03-05T05:26:20.248Z,0
2019-03-05T05:27:18.630Z,0
2019-03-05T05:28:18.625Z,0
2019-03-05T05:29:18.612Z,0
2019-03-05T05:30:18.595Z,0
2019-03-05T05:31:18.581Z,0
2019-03-05T05:32:18.643Z,0
2019-03-05T05:33:18.569Z,0
2019-03-05T05:34:18.563Z,0
2019-03-05T05:35:18.571Z,0
2019-03-05T05:36:18.285Z,0
2019-03-05T05:37:18.519Z,0
2019-03-05T05:38:18.523Z,0
2019-03-05T05:39:18.489Z,0
2019-03-05T05:40:18.482Z,0
2019-03-05T05:41:18.463Z,0
2019-03-05T05:42:18.460Z,0
2019-03-05T05:43:18.455Z,0
2019-03-05T05:44:18.424Z,5
2019-03-05T05:45:19.281Z,5
2019-03-05T05:46:18.401Z,5
2019-03-05T05:47:18.398Z,5
2019-03-05T05:48:18.382Z,5
2019-03-05T05:49:18.374Z,5
2019-03-05T05:50:18.436Z,5
2019-03-05T05:51:18.342Z,5
2019-03-05T05:52:18.336Z,5
2019-03-05T05:53:18.328Z,5
2019-03-05T05:54:18.317Z,5
2019-03-05T05:55:18.293Z,10
2019-03-05T05:56:18.349Z,10
2019-03-05T05:57:18.268Z,10
2019-03-05T05:58:18.265Z,10
2019-03-05T05:59:18.247Z,10
2019-03-05T06:00:18.290Z,10
2019-03-05T06:01:18.222Z,15
2019-03-05T06:02:17.958Z,15
2019-03-05T06:03:18.202Z,15
2019-03-05T06:04:18.188Z,15
2019-03-05T06:05:18.167Z,20
2019-03-05T06:06:18.162Z,20
2019-03-05T06:07:18.149Z,25
2019-03-05T06:08:18.139Z,25
2019-03-05T06:09:18.119Z,25
2019-03-05T06:10:18.107Z,25
2019-03-05T06:11:18.097Z,25
2019-03-05T06:12:18.086Z,25
2019-03-05T06:13:18.072Z,25
2019-03-05T06:14:17.818Z,25
2019-03-05T06:15:18.048Z,25
2019-03-05T06:16:18.043Z,30
2019-03-05T06:17:18.024Z,30
2019-03-05T06:18:18.010Z,35
2019-03-05T06:19:18.000Z,35
2019-03-05T06:20:17.986Z,30
2019-03-05T06:21:17.971Z,30
2019-03-05T06:22:17.964Z,30
2019-03-05T06:23:17.948Z,30
2019-03-05T06:24:17.951Z,30
2019-03-05T06:25:17.956Z,30
2019-03-05T06:26:18.347Z,35
2019-03-05T06:27:17.908Z,40
2019-03-05T06:28:17.893Z,35
2019-03-05T06:29:17.874Z,35
2019-03-05T06:30:17.865Z,40
2019-03-05T06:31:17.850Z,45
2019-03-05T06:32:19.929Z,45
2019-03-05T06:33:17.818Z,55
2019-03-05T06:34:17.789Z,50
2019-03-05T06:35:17.783Z,45
2019-03-05T06:36:17.775Z,45
2019-03-05T06:37:17.764Z,50
2019-03-05T06:38:17.748Z,55
2019-03-05T06:39:17.731Z,70
2019-03-05T06:40:17.722Z,80
2019-03-05T06:41:17.707Z,80
2019-03-05T06:42:17.705Z,90
2019-03-05T06:43:17.682Z,90
2019-03-05T06:44:18.986Z,85
2019-03-05T06:45:17.672Z,90
2019-03-05T06:46:17.646Z,95
2019-03-05T06:47:17.642Z,105
2019-03-05T06:48:17.627Z,110
2019-03-05T06:49:17.614Z,110
2019-03-05T06:50:17.658Z,110
2019-03-05T06:51:17.347Z,120
2019-03-05T06:52:19.020Z,125
2019-03-05T06:53:17.563Z,125
2019-03-05T06:54:17.561Z,130
2019-03-05T06:55:17.304Z,135
2019-03-05T06:56:17.531Z,140
2019-03-05T06:57:17.517Z,140
2019-03-05T06:58:19.002Z,145
2019-03-05T06:59:17.517Z,145
2019-03-05T07:00:17.493Z,150
2019-03-05T07:01:17.476Z,150
2019-03-05T07:02:17.459Z,155
2019-03-05T07:03:17.508Z,160
2019-03-05T07:04:17.441Z,175
2019-03-05T07:05:17.423Z,170
2019-03-05T07:06:17.420Z,175
2019-03-05T07:07:17.411Z,175
2019-03-05T07:08:17.154Z,175
2019-03-05T07:09:17.461Z,180
2019-03-05T07:10:17.583Z,185
2019-03-05T07:11:17.363Z,185
2019-03-05T07:12:17.428Z,185
2019-03-05T07:13:17.335Z,195
2019-03-05T07:14:17.335Z,190
2019-03-05T07:15:17.392Z,205
2019-03-05T07:16:17.302Z,240
2019-03-05T07:17:17.290Z,240
2019-03-05T07:18:17.278Z,245
2019-03-05T07:19:17.283Z,275
2019-03-05T07:20:17.254Z,290
2019-03-05T07:21:17.004Z,340
2019-03-05T07:22:17.313Z,330
2019-03-05T07:23:17.228Z,315
2019-03-05T07:24:17.222Z,315
2019-03-05T07:25:17.218Z,340
2019-03-05T07:26:17.204Z,340
2019-03-05T07:27:17.182Z,305
2019-03-05T07:28:17.170Z,305
2019-03-05T07:29:18.061Z,285
2019-03-05T07:30:17.156Z,235
2019-03-05T07:31:17.142Z,210
2019-03-05T07:32:16.901Z,200
2019-03-05T07:33:17.126Z,215
2019-03-05T07:34:17.114Z,210
2019-03-05T07:35:17.102Z,200
2019-03-05T07:36:17.100Z,195
2019-03-05T07:37:17.102Z,180
2019-03-05T07:38:17.078Z,175
2019-03-05T07:39:17.149Z,190
2019-03-05T07:40:17.061Z,200
2019-03-05T07:41:17.051Z,195
2019-03-05T07:42:17.037Z,195
2019-03-05T07:43:17.036Z,220
2019-03-05T07:44:17.021Z,220
2019-03-05T07:45:17.011Z,185
2019-03-05T07:46:17.000Z,145
2019-03-05T07:47:17.002Z,155
2019-03-05T07:48:17.038Z,140
2019-03-05T07:49:16.989Z,170
2019-03-05T07:50:16.769Z,190
2019-03-05T07:51:16.947Z,210
2019-03-05T07:52:16.939Z,165
2019-03-05T07:53:16.939Z,155
2019-03-05T07:54:16.929Z,155
2019-03-05T07:55:23.234Z,175
2019-03-05T07:56:16.900Z,190
2019-03-05T07:57:16.647Z,215
2019-03-05T07:58:16.646Z,205
2019-03-05T07:59:16.878Z,235
2019-03-05T08:00:16.870Z,280
2019-03-05T08:01:27.059Z,250
2019-03-05T08:02:16.602Z,250
2019-03-05T08:03:16.832Z,270
2019-03-05T08:04:16.824Z,290
2019-03-05T08:05:16.815Z,300
2019-03-05T08:06:16.817Z,310
2019-03-05T08:07:16.799Z,320
2019-03-05T08:08:26.287Z,370
2019-03-05T08:09:16.791Z,375
2019-03-05T08:10:16.769Z,360
2019-03-05T08:11:16.760Z,340
2019-03-05T08:12:16.752Z,305
2019-03-05T08:13:16.737Z,260
2019-03-05T08:14:16.728Z,280
2019-03-05T08:15:16.728Z,255
2019-03-05T08:16:16.720Z,285
2019-03-05T08:17:16.707Z,320
2019-03-05T08:18:16.776Z,345
2019-03-05T08:19:16.685Z,265
2019-03-05T08:20:16.673Z,240
2019-03-05T08:21:16.662Z,325
2019-03-05T08:22:18.386Z,320
2019-03-05T08:23:16.725Z,315
2019-03-05T08:24:16.640Z,310
2019-03-05T08:25:16.720Z,320
2019-03-05T08:26:16.622Z,305
2019-03-05T08:27:16.437Z,355
2019-03-05T08:28:16.608Z,260
2019-03-05T08:29:16.600Z,305
2019-03-05T08:30:24.031Z,250
2019-03-05T08:31:16.585Z,230
2019-03-05T08:32:16.572Z,270
2019-03-05T08:33:16.563Z,355
2019-03-05T08:34:16.550Z,285
2019-03-05T08:35:16.548Z,340
2019-03-05T08:36:16.533Z,385
2019-03-05T08:37:18.273Z,380
2019-03-05T08:38:16.103Z,385
2019-03-05T08:39:16.514Z,395
2019-03-05T08:40:16.512Z,300
2019-03-05T08:41:16.492Z,255
2019-03-05T08:42:16.243Z,225
2019-03-05T08:43:16.471Z,235
2019-03-05T08:44:16.467Z,245
2019-03-05T08:45:16.491Z,270
2019-03-05T08:46:16.467Z,335
2019-03-05T08:47:16.440Z,355
2019-03-05T08:48:16.432Z,390
2019-03-05T08:49:17.919Z,355
2019-03-05T08:50:16.415Z,335
2019-03-05T08:51:16.166Z,335
2019-03-05T08:52:16.400Z,365
2019-03-05T08:53:16.390Z,365
2019-03-05T08:54:17.391Z,370
2019-03-05T08:55:16.437Z,355
2019-03-05T08:56:16.377Z,295
2019-03-05T08:57:16.361Z,265
2019-03-05T08:58:16.399Z,315
2019-03-05T08:59:16.102Z,340
2019-03-05T09:00:16.101Z,380
2019-03-05T09:01:16.331Z,355
2019-03-05T09:02:16.315Z,415
2019-03-05T09:03:16.309Z,410
2019-03-05T09:04:16.367Z,385
2019-03-05T09:05:16.317Z,380
2019-03-05T09:06:16.283Z,415
2019-03-05T09:07:16.287Z,445
2019-03-05T09:08:16.266Z,415
2019-03-05T09:09:16.272Z,375
2019-03-05T09:10:16.277Z,415
2019-03-05T09:11:16.251Z,375
2019-03-05T09:12:16.304Z,325
2019-03-05T09:13:16.234Z,350
2019-03-05T09:14:16.225Z,335
2019-03-05T09:15:16.214Z,360
2019-03-05T09:16:15.962Z,355
2019-03-05T09:17:15.957Z,320
2019-03-05T09:18:16.194Z,300
2019-03-05T09:19:16.187Z,345
2019-03-05T09:20:16.186Z,390
2019-03-05T09:21:16.168Z,385
2019-03-05T09:22:16.172Z,410
2019-03-05T09:23:16.162Z,450
2019-03-05T09:24:16.147Z,425
2019-03-05T09:25:16.169Z,440
2019-03-05T09:26:16.145Z,470
2019-03-05T09:27:16.130Z,430
2019-03-05T09:28:16.946Z,440
2019-03-05T09:29:16.136Z,425
2019-03-05T09:30:16.102Z,415
2019-03-05T09:31:16.094Z,355
2019-03-05T09:32:16.093Z,285
2019-03-05T09:33:18.355Z,250
2019-03-05T09:34:16.081Z,235
2019-03-05T09:35:16.075Z,280
2019-03-05T09:36:16.068Z,265
2019-03-05T09:37:16.090Z,220
2019-03-05T09:38:16.051Z,150
2019-03-05T09:39:16.073Z,125
2019-03-05T09:40:16.040Z,115
2019-03-05T09:41:15.788Z,135
2019-03-05T09:42:16.023Z,170
2019-03-05T09:43:16.018Z,265
2019-03-05T09:44:16.003Z,260
2019-03-05T09:45:16.007Z,245
2019-03-05T09:46:15.998Z,245
2019-03-05T09:47:15.998Z,285
2019-03-05T09:48:16.174Z,325
2019-03-05T09:49:15.971Z,310
2019-03-05T09:50:15.957Z,275
2019-03-05T09:51:15.706Z,280
2019-03-05T09:52:15.948Z,245
2019-03-05T09:53:15.935Z,270
2019-03-05T09:54:15.930Z,310
2019-03-05T09:55:15.682Z,310
2019-03-05T09:56:15.924Z,315
2019-03-05T09:57:15.904Z,340
2019-03-05T09:58:18.050Z,380
2019-03-05T09:59:15.885Z,425
2019-03-05T10:00:15.950Z,375
2019-03-05T10:01:15.873Z,350
2019-03-05T10:02:15.861Z,355
2019-03-05T10:03:18.262Z,325
2019-03-05T10:04:15.613Z,350
2019-03-05T10:05:15.846Z,355
2019-03-05T10:06:15.837Z,360
2019-03-05T10:07:26.016Z,330
2019-03-05T10:08:15.578Z,280
2019-03-05T10:09:15.806Z,235
2019-03-05T10:10:15.800Z,295
2019-03-05T10:11:15.791Z,360
2019-03-05T10:12:15.788Z,375
2019-03-05T10:13:18.125Z,325
2019-03-05T10:14:15.767Z,275
2019-03-05T10:15:15.758Z,245
2019-03-05T10:16:15.811Z,215
2019-03-05T10:17:15.755Z,220
2019-03-05T10:18:22.351Z,270
2019-03-05T10:19:15.728Z,225
2019-03-05T10:20:15.729Z,190
2019-03-05T10:21:16.839Z,210
2019-03-05T10:22:16.165Z,250
2019-03-05T10:23:15.693Z,235
2019-03-05T10:24:20.203Z,310
2019-03-05T10:25:17.783Z,345
2019-03-05T10:26:18.572Z,385
2019-03-05T10:27:15.670Z,270
2019-03-05T10:28:15.420Z,220
2019-03-05T10:29:15.648Z,275
2019-03-05T10:30:26.760Z,320
2019-03-05T10:31:15.635Z,330
2019-03-05T10:32:15.622Z,345
2019-03-05T10:33:15.623Z,365
2019-03-05T10:34:15.607Z,425
2019-03-05T10:35:15.359Z,335
2019-03-05T10:36:15.655Z,255
2019-03-05T10:37:26.037Z,320
2019-03-05T10:38:15.581Z,395
2019-03-05T10:39:15.573Z,430
2019-03-05T10:40:15.572Z,340
2019-03-05T10:41:15.318Z,330
2019-03-05T10:42:15.546Z,285
2019-03-05T10:43:18.430Z,270
2019-03-05T10:44:15.583Z,315
2019-03-05T10:45:15.520Z,325
2019-03-05T10:46:15.518Z,260
2019-03-05T10:47:15.511Z,205
2019-03-05T10:48:15.501Z,210
2019-03-05T10:49:15.503Z,280
2019-03-05T10:50:24.670Z,340
2019-03-05T10:51:15.483Z,360
2019-03-05T10:52:15.478Z,350
2019-03-05T10:53:15.464Z,360
2019-03-05T10:54:15.456Z,340
2019-03-05T10:55:25.669Z,335
2019-03-05T10:56:15.442Z,365
2019-03-05T10:57:15.437Z,390
2019-03-05T10:58:15.429Z,380
2019-03-05T10:59:15.418Z,345
2019-03-05T11:00:15.480Z,330
2019-03-05T11:01:15.395Z,300
2019-03-05T11:02:15.392Z,285
2019-03-05T11:03:15.466Z,280
2019-03-05T11:04:15.376Z,275
2019-03-05T11:05:15.369Z,275
2019-03-05T11:06:15.371Z,250
2019-03-05T11:07:15.359Z,235
2019-03-05T11:08:15.101Z,205
2019-03-05T11:09:15.361Z,215
2019-03-05T11:10:15.332Z,210
2019-03-05T11:11:23.186Z,185
2019-03-05T11:12:15.381Z,180
2019-03-05T11:13:15.070Z,175
2019-03-05T11:14:15.302Z,190
2019-03-05T11:15:15.289Z,230
2019-03-05T11:16:15.048Z,235
2019-03-05T11:17:15.282Z,240
2019-03-05T11:18:15.268Z,265
2019-03-05T11:19:15.273Z,300
2019-03-05T11:20:15.248Z,335
2019-03-05T11:21:15.250Z,365
2019-03-05T11:22:15.236Z,390
2019-03-05T11:23:16.501Z,395
2019-03-05T11:24:15.221Z,395
2019-03-05T11:25:15.209Z,380
2019-03-05T11:26:15.206Z,340
2019-03-05T11:27:15.199Z,305
2019-03-05T11:28:15.192Z,305
2019-03-05T11:29:15.178Z,310
2019-03-05T11:30:15.174Z,340
2019-03-05T11:31:15.163Z,380
2019-03-05T11:32:15.151Z,380
2019-03-05T11:33:15.187Z,370
2019-03-05T11:34:17.808Z,290
2019-03-05T11:35:15.130Z,235
2019-03-05T11:36:15.594Z,220
2019-03-05T11:37:15.109Z,190
2019-03-05T11:38:14.871Z,235
2019-03-05T11:39:15.538Z,280
2019-03-05T11:40:25.414Z,335
2019-03-05T11:41:15.163Z,350
2019-03-05T11:42:15.072Z,355
2019-03-05T11:43:15.343Z,340
2019-03-05T11:44:15.223Z,275
2019-03-05T11:45:18.878Z,285
2019-03-05T11:46:15.071Z,290
2019-03-05T11:47:15.031Z,275
2019-03-05T11:48:15.025Z,250
2019-03-05T11:49:15.029Z,240
2019-03-05T11:50:15.021Z,270
2019-03-05T11:51:15.013Z,305
2019-03-05T11:52:14.761Z,315
2019-03-05T11:53:14.995Z,320
2019-03-05T11:54:14.983Z,310
2019-03-05T11:55:15.058Z,300
2019-03-05T11:56:14.982Z,295
2019-03-05T11:57:14.978Z,295
2019-03-05T11:58:14.959Z,285
2019-03-05T11:59:14.964Z,265
2019-03-05T12:00:15.016Z,255
2019-03-05T12:01:14.687Z,265
2019-03-05T12:02:26.473Z,295
2019-03-05T12:03:14.908Z,315
2019-03-05T12:04:14.910Z,340
2019-03-05T12:05:14.656Z,335
2019-03-05T12:06:15.006Z,285
2019-03-05T12:07:15.129Z,230
2019-03-05T12:08:14.886Z,240
2019-03-05T12:09:14.869Z,240
2019-03-05T12:10:14.873Z,240
2019-03-05T12:11:14.849Z,240
2019-03-05T12:12:14.844Z,255
2019-03-05T12:13:16.947Z,240
2019-03-05T12:14:14.838Z,210
2019-03-05T12:15:14.825Z,195
2019-03-05T12:16:14.814Z,195
2019-03-05T12:17:14.808Z,205
2019-03-05T12:18:14.807Z,215
2019-03-05T12:19:14.798Z,215
2019-03-05T12:20:14.788Z,215
2019-03-05T12:21:14.815Z,215
2019-03-05T12:22:14.781Z,205
2019-03-05T12:23:17.522Z,185
2019-03-05T12:24:14.759Z,185
2019-03-05T12:25:14.762Z,180
2019-03-05T12:26:14.802Z,170
2019-03-05T12:27:14.786Z,175
2019-03-05T12:28:19.871Z,170
2019-03-05T12:29:14.767Z,165
2019-03-05T12:30:14.717Z,160
2019-03-05T12:31:14.460Z,160
2019-03-05T12:32:15.351Z,165
2019-03-05T12:33:16.158Z,170
2019-03-05T12:34:14.681Z,175
2019-03-05T12:35:14.668Z,165
2019-03-05T12:36:14.673Z,155
2019-03-05T12:37:14.658Z,145
2019-03-05T12:38:14.929Z,135
2019-03-05T12:39:14.648Z,140
2019-03-05T12:40:14.633Z,140
2019-03-05T12:41:14.618Z,140
2019-03-05T12:42:14.631Z,135
2019-03-05T12:43:14.360Z,140
2019-03-05T12:44:14.961Z,145
2019-03-05T12:45:14.600Z,150
2019-03-05T12:46:14.584Z,150
2019-03-05T12:47:15.883Z,155
2019-03-05T12:48:14.572Z,155
2019-03-05T12:49:16.850Z,160
2019-03-05T12:50:14.555Z,160
2019-03-05T12:51:14.548Z,165
2019-03-05T12:52:14.534Z,175
2019-03-05T12:53:15.998Z,185
2019-03-05T12:54:14.508Z,200
2019-03-05T12:55:14.502Z,215
2019-03-05T12:56:25.803Z,230
2019-03-05T12:57:14.510Z,240
2019-03-05T12:58:14.477Z,245
2019-03-05T12:59:14.486Z,245
2019-03-05T13:00:14.463Z,245
2019-03-05T13:01:14.450Z,245
2019-03-05T13:02:14.471Z,240
2019-03-05T13:03:14.443Z,245
2019-03-05T13:04:14.425Z,245
2019-03-05T13:05:14.168Z,250
2019-03-05T13:06:14.409Z,255
2019-03-05T13:07:17.653Z,260
2019-03-05T13:08:14.389Z,270
2019-03-05T13:09:20.311Z,275
2019-03-05T13:10:14.383Z,275
2019-03-05T13:11:18.035Z,270
2019-03-05T13:12:14.356Z,260
2019-03-05T13:13:18.964Z,250
2019-03-05T13:14:20.714Z,255
2019-03-05T13:15:14.328Z,290
2019-03-05T13:16:16.326Z,320
2019-03-05T13:17:14.315Z,310
2019-03-05T13:18:16.604Z,315
2019-03-05T13:19:18.462Z,300
2019-03-05T13:20:14.305Z,265
2019-03-05T13:21:18.382Z,300
2019-03-05T13:22:14.460Z,295
2019-03-05T13:23:19.067Z,255
2019-03-05T13:24:19.430Z,255
2019-03-05T13:25:14.250Z,210
2019-03-05T13:26:17.262Z,180
2019-03-05T13:27:14.227Z,185
2019-03-05T13:28:14.014Z,205
2019-03-05T13:29:19.111Z,210
2019-03-05T13:30:15.306Z,200
2019-03-05T13:31:14.373Z,180
2019-03-05T13:32:16.754Z,165
2019-03-05T13:33:14.182Z,160
2019-03-05T13:34:17.692Z,130
2019-03-05T13:35:16.633Z,115
2019-03-05T13:36:21.334Z,135
2019-03-05T13:37:14.186Z,175
2019-03-05T13:38:17.217Z,210
2019-03-05T13:39:14.155Z,200
2019-03-05T13:40:14.146Z,210
2019-03-05T13:41:18.262Z,225
2019-03-05T13:42:15.138Z,230
2019-03-05T13:43:14.106Z,260
2019-03-05T13:44:14.099Z,290
2019-03-05T13:45:16.512Z,285
2019-03-05T13:46:14.074Z,280
2019-03-05T13:47:18.250Z,265
2019-03-05T13:48:23.513Z,295
2019-03-05T13:49:17.932Z,320
2019-03-05T13:50:18.452Z,335
2019-03-05T13:51:14.115Z,335
2019-03-05T13:52:14.045Z,330
2019-03-05T13:53:32.496Z,310
2019-03-05T13:54:18.405Z,330
2019-03-05T13:55:14.011Z,370
2019-03-05T13:56:16.825Z,375
2019-03-05T13:57:20.552Z,325
2019-03-05T13:58:14.056Z,285
2019-03-05T13:59:13.982Z,280
2019-03-05T14:00:16.772Z,305
2019-03-05T14:01:13.968Z,320
2019-03-05T14:02:13.721Z,285
2019-03-05T14:03:13.943Z,240
2019-03-05T14:04:16.381Z,230
2019-03-05T14:05:15.624Z,210
2019-03-05T14:06:14.247Z,180
2019-03-05T14:07:13.920Z,160
2019-03-05T14:08:14.020Z,160
2019-03-05T14:09:16.072Z,155
2019-03-05T14:10:13.949Z,150
2019-03-05T14:11:13.967Z,145
2019-03-05T14:12:13.915Z,135